Time;durP1;ratioP1;P1;durP2;ratioP2;P2;SDS_P1;SDS_P2;PMS_P1;PMS_P2;Temp;Humidity;BMP_temperature;BMP_pressure;BME280_temperature;BME280_humidity;BME280_pressure;Samples;Min_cycle;Max_cycle;Signal;HPM_P1;HPM_P2
2023/10/17 00:00:32;;;;;;;31.02;19.67;;;4.80;99.90;;;;;;5074745;28;20387;-67
2023/10/17 00:02:59;;;;;;;27.45;17.55;;;4.70;99.90;;;;;;5074394;28;20157;-67
2023/10/17 00:05:25;;;;;;;26.67;18.25;;;4.70;99.90;;;;;;5074436;28;20020;-67
2023/10/17 00:07:51;;;;;;;28.30;18.15;;;4.60;99.90;;;;;;5074612;28;20035;-67
2023/10/17 00:10:18;;;;;;;30.05;18.02;;;4.60;99.90;;;;;;5074589;28;20060;-67
2023/10/17 00:12:46;;;;;;;26.73;17.80;;;4.50;99.90;;;;;;5074277;28;20401;-67
2023/10/17 00:15:44;;;;;;;27.88;17.40;;;4.40;99.90;;;;;;5073786;28;20024;-67
2023/10/17 00:18:04;;;;;;;34.15;18.02;;;4.40;99.90;;;;;;5073430;28;20082;-67
2023/10/17 00:20:37;;;;;;;25.15;17.27;;;4.50;99.90;;;;;;5074424;28;20028;-66
2023/10/17 00:23:04;;;;;;;30.85;19.05;;;4.50;99.90;;;;;;5074117;28;20387;-67
2023/10/17 00:25:30;;;;;;;29.90;18.77;;;4.50;99.90;;;;;;5073234;28;20031;-66
2023/10/17 00:27:57;;;;;;;27.75;19.73;;;4.50;99.90;;;;;;5073868;28;20037;-66
2023/10/17 00:30:23;;;;;;;30.98;18.48;;;4.50;99.90;;;;;;5074533;28;20081;-66
2023/10/17 00:32:50;;;;;;;29.95;17.10;;;4.50;99.90;;;;;;5073935;28;20024;-66
2023/10/17 00:35:18;;;;;;;27.80;17.75;;;4.40;99.90;;;;;;5073515;28;20450;-66
2023/10/17 00:37:53;;;;;;;28.48;17.63;;;4.40;99.90;;;;;;5074199;28;20031;-66
2023/10/17 00:40:34;;;;;;;26.85;18.17;;;4.40;99.90;;;;;;5073404;28;20061;-66
2023/10/17 00:43:05;;;;;;;24.77;18.08;;;4.40;99.90;;;;;;5073973;28;20459;-66
2023/10/17 00:45:32;;;;;;;23.30;17.05;;;4.40;99.90;;;;;;5073959;28;20099;-66
2023/10/17 00:47:59;;;;;;;24.45;16.33;;;4.40;99.90;;;;;;5073593;28;20050;-66
2023/10/17 00:50:26;;;;;;;27.65;17.20;;;4.40;99.90;;;;;;5073545;28;20032;-66
2023/10/17 00:52:52;;;;;;;26.10;17.90;;;4.40;99.90;;;;;;5074152;28;20035;-66
2023/10/17 00:55:18;;;;;;;23.67;16.35;;;4.40;99.90;;;;;;5073240;28;20024;-66
2023/10/17 00:57:45;;;;;;;29.50;18.23;;;4.40;99.90;;;;;;5073825;28;20025;-66
2023/10/17 01:00:22;;;;;;;24.50;17.27;;;4.50;99.90;;;;;;5074023;28;20025;-66
2023/10/17 01:02:51;;;;;;;27.50;17.88;;;4.40;99.90;;;;;;5073779;28;20095;-66
2023/10/17 01:05:18;;;;;;;30.98;18.45;;;4.40;99.90;;;;;;5073750;28;20128;-66
2023/10/17 01:07:44;;;;;;;25.92;18.75;;;4.40;99.90;;;;;;5073592;28;20474;-66
2023/10/17 01:10:13;;;;;;;25.15;17.67;;;4.30;99.90;;;;;;5073625;28;20021;-66
2023/10/17 01:12:52;;;;;;;31.42;19.92;;;4.30;99.90;;;;;;5073358;28;20028;-66
2023/10/17 01:15:19;;;;;;;27.15;17.58;;;4.30;99.90;;;;;;5073148;28;20029;-66
2023/10/17 01:17:45;;;;;;;32.13;19.92;;;4.40;99.90;;;;;;5073492;28;20036;-66
2023/10/17 01:20:15;;;;;;;32.17;19.42;;;4.40;99.90;;;;;;5073249;28;20029;-71
2023/10/17 01:22:42;;;;;;;34.90;19.85;;;4.40;99.90;;;;;;5073830;28;20021;-66
2023/10/17 01:25:19;;;;;;;28.77;18.05;;;4.40;99.90;;;;;;5072943;28;20016;-66
2023/10/17 01:27:44;;;;;;;22.95;17.02;;;4.40;99.90;;;;;;5073685;28;20029;-66
2023/10/17 01:30:11;;;;;;;28.15;19.75;;;4.40;99.90;;;;;;5073151;28;20078;-66
2023/10/17 01:32:36;;;;;;;25.70;17.23;;;4.40;99.90;;;;;;5073420;28;20478;-66
2023/10/17 01:35:02;;;;;;;26.55;17.15;;;4.30;99.90;;;;;;5073831;28;20043;-66
2023/10/17 01:37:28;;;;;;;25.92;17.15;;;4.30;99.90;;;;;;5073035;28;20024;-66
2023/10/17 01:39:53;;;;;;;23.65;17.05;;;4.30;99.90;;;;;;5076657;28;20029;-66
2023/10/17 01:42:20;;;;;;;28.27;17.77;;;4.30;99.90;;;;;;5077083;28;20034;-66
2023/10/17 01:44:45;;;;;;;31.38;19.50;;;4.30;99.90;;;;;;5076988;28;20028;-67
2023/10/17 01:47:11;;;;;;;28.15;18.92;;;4.30;99.90;;;;;;5077340;28;20024;-66
2023/10/17 01:49:36;;;;;;;29.05;19.35;;;4.30;99.90;;;;;;5076913;28;20032;-66
2023/10/17 01:52:03;;;;;;;27.23;17.52;;;4.30;99.90;;;;;;5076703;28;20033;-66
2023/10/17 01:54:29;;;;;;;35.80;20.95;;;3.90;99.90;;;;;;5077129;28;20489;-66
2023/10/17 01:57:05;;;;;;;36.60;22.60;;;4.30;99.90;;;;;;5076355;28;20117;-66
2023/10/17 01:59:33;;;;;;;34.53;22.05;;;4.40;99.90;;;;;;5076941;28;20044;-66
2023/10/17 02:02:03;;;;;;;34.30;20.63;;;4.40;99.90;;;;;;5076556;28;20110;-66
2023/10/17 02:04:29;;;;;;;30.42;19.85;;;4.50;99.90;;;;;;5077113;28;20455;-69
2023/10/17 02:06:55;;;;;;;29.02;18.92;;;4.50;99.90;;;;;;5076426;28;20471;-66
2023/10/17 02:09:24;;;;;;;28.10;19.17;;;4.50;99.90;;;;;;5077458;28;20034;-66
2023/10/17 02:11:53;;;;;;;32.15;19.60;;;4.50;99.90;;;;;;5077087;28;20032;-66
2023/10/17 02:14:18;;;;;;;30.23;19.83;;;4.50;99.90;;;;;;5076567;28;20448;-66
2023/10/17 02:16:44;;;;;;;31.95;19.60;;;4.50;99.90;;;;;;5076199;28;20103;-66
2023/10/17 02:19:11;;;;;;;35.90;21.88;;;4.50;99.90;;;;;;5076173;28;20016;-66
2023/10/17 02:21:39;;;;;;;34.83;22.02;;;4.50;99.90;;;;;;5076357;28;20078;-66
2023/10/17 02:24:06;;;;;;;31.13;20.05;;;4.50;99.90;;;;;;5076676;28;20451;-66
2023/10/17 02:26:33;;;;;;;33.03;21.40;;;4.70;99.90;;;;;;5076646;28;20024;-66
2023/10/17 02:28:59;;;;;;;29.77;20.58;;;4.50;99.90;;;;;;5076338;28;20435;-66
2023/10/17 02:31:33;;;;;;;31.67;19.65;;;4.50;99.90;;;;;;5076498;28;20103;-66
2023/10/17 02:33:59;;;;;;;34.22;21.02;;;4.50;99.90;;;;;;5076694;28;20024;-66
2023/10/17 02:36:25;;;;;;;33.05;21.45;;;4.50;99.90;;;;;;5075925;28;20025;-66
2023/10/17 02:38:50;;;;;;;32.47;20.02;;;4.50;99.90;;;;;;5076206;28;20036;-66
2023/10/17 02:41:19;;;;;;;31.17;19.55;;;4.60;99.90;;;;;;5076003;28;20021;-66
2023/10/17 02:43:46;;;;;;;37.58;23.85;;;4.60;99.90;;;;;;5075832;28;20516;-66
2023/10/17 02:46:14;;;;;;;37.13;22.95;;;4.60;99.90;;;;;;5075320;28;20033;-66
2023/10/17 02:48:40;;;;;;;34.40;22.77;;;4.60;99.90;;;;;;5076055;28;20356;-66
2023/10/17 02:53:59;;;;;;;43.60;24.42;;;4.80;99.90;;;;;;5112071;27;20433;-64
2023/10/17 02:56:26;;;;;;;49.70;28.42;;;4.70;99.90;;;;;;5111495;28;20024;-64
2023/10/17 02:59:10;;;;;;;43.20;25.63;;;4.90;99.90;;;;;;5111743;28;20053;-64
2023/10/17 03:01:37;;;;;;;40.50;25.35;;;4.80;99.90;;;;;;5111897;28;20077;-64
2023/10/17 03:04:08;;;;;;;41.53;26.25;;;4.80;99.90;;;;;;5111285;28;20027;-65
2023/10/17 03:06:37;;;;;;;37.42;24.25;;;4.80;99.90;;;;;;5111041;28;20077;-65
2023/10/17 03:09:15;;;;;;;36.60;24.15;;;4.80;99.90;;;;;;5111864;28;20390;-65
2023/10/17 03:11:51;;;;;;;40.83;24.98;;;4.80;99.90;;;;;;5111320;28;20023;-65
2023/10/17 03:14:19;;;;;;;37.85;24.73;;;4.80;99.90;;;;;;5111102;28;20028;-65
2023/10/17 03:16:52;;;;;;;39.67;25.63;;;4.80;99.90;;;;;;5111635;28;20421;-65
2023/10/17 03:19:27;;;;;;;37.47;25.30;;;4.80;99.90;;;;;;5111684;27;20054;-65
2023/10/17 03:21:54;;;;;;;41.60;24.95;;;4.80;99.90;;;;;;5111014;28;20032;-65
2023/10/17 03:24:38;;;;;;;46.17;26.75;;;4.80;99.90;;;;;;5111443;28;20031;-65
2023/10/17 03:27:04;;;;;;;41.20;26.05;;;4.80;99.90;;;;;;5111405;28;20088;-65
2023/10/17 03:29:34;;;;;;;42.22;27.83;;;4.70;99.90;;;;;;5110777;28;20587;-65
2023/10/17 03:32:03;;;;;;;40.92;25.55;;;4.80;99.90;;;;;;5110871;28;20072;-65
2023/10/17 03:34:35;;;;;;;44.25;26.48;;;4.70;99.90;;;;;;5110556;28;20023;-65
2023/10/17 03:37:26;;;;;;;41.55;25.35;;;4.80;99.90;;;;;;5110978;28;20377;-65
2023/10/17 03:39:52;;;;;;;40.53;25.77;;;4.80;99.90;;;;;;5109158;28;20026;-65
2023/10/17 03:42:41;;;;;;;42.22;25.60;;;4.80;99.90;;;;;;5111105;28;20031;-65
2023/10/17 03:45:13;;;;;;;50.00;29.65;;;4.80;99.90;;;;;;5109003;28;20116;-65
2023/10/17 03:47:40;;;;;;;58.28;32.08;;;4.80;99.90;;;;;;5110716;28;20028;-65
2023/10/17 03:50:08;;;;;;;62.38;36.08;;;4.90;99.90;;;;;;5110585;28;20020;-65
2023/10/17 03:52:35;;;;;;;54.65;32.28;;;4.90;99.90;;;;;;5110282;28;20036;-65
2023/10/17 03:55:01;;;;;;;59.58;34.10;;;5.00;99.90;;;;;;5110588;28;20027;-65
2023/10/17 03:57:27;;;;;;;61.72;34.97;;;5.00;99.90;;;;;;5110550;28;20027;-65
2023/10/17 03:59:56;;;;;;;62.00;33.35;;;5.10;99.90;;;;;;5110481;28;20044;-65
2023/10/17 04:02:24;;;;;;;60.50;35.58;;;5.10;99.90;;;;;;5110325;28;20073;-72
2023/10/17 04:04:54;;;;;;;60.63;32.95;;;5.10;99.90;;;;;;5099930;28;20066;-65
2023/10/17 04:07:22;;;;;;;54.03;32.47;;;5.10;99.90;;;;;;5096799;28;20540;-65
2023/10/17 04:10:20;;;;;;;58.30;33.38;;;5.10;99.90;;;;;;5096656;28;20032;-65
2023/10/17 04:12:48;;;;;;;54.58;31.17;;;5.10;99.90;;;;;;5095950;28;20054;-65
2023/10/17 04:15:18;;;;;;;54.45;29.48;;;5.10;99.90;;;;;;5096643;28;20044;-71
2023/10/17 04:17:46;;;;;;;52.80;30.20;;;5.10;99.90;;;;;;5096870;28;20052;-65
2023/10/17 04:20:12;;;;;;;60.78;33.13;;;5.10;99.90;;;;;;5097017;28;20374;-65
2023/10/17 04:22:39;;;;;;;53.42;32.00;;;5.10;99.90;;;;;;5096296;28;20378;-65
2023/10/17 04:25:20;;;;;;;47.53;29.05;;;5.10;99.90;;;;;;5096442;28;20031;-65
2023/10/17 04:27:53;;;;;;;48.28;28.90;;;5.00;99.90;;;;;;5096671;28;20020;-65
2023/10/17 04:30:22;;;;;;;50.95;29.83;;;5.00;99.90;;;;;;5096885;28;20024;-65
2023/10/17 04:32:52;;;;;;;54.65;32.38;;;5.00;99.90;;;;;;5095810;28;20024;-65
2023/10/17 04:35:20;;;;;;;57.00;32.65;;;5.00;99.90;;;;;;5096022;28;20031;-64
2023/10/17 04:38:05;;;;;;;51.38;29.90;;;5.00;99.90;;;;;;5096154;28;20024;-64
2023/10/17 04:40:38;;;;;;;54.17;31.98;;;5.00;99.90;;;;;;5095479;28;20044;-65
2023/10/17 04:45:55;;;;;;;58.53;32.90;;;4.90;99.90;;;;;;5095327;28;20033;-65
2023/10/17 04:48:32;;;;;;;61.35;33.53;;;5.00;99.90;;;;;;5095731;28;20075;-65
2023/10/17 04:51:05;;;;;;;61.22;33.22;;;5.00;99.90;;;;;;5096000;28;20024;-65
2023/10/17 04:53:35;;;;;;;54.08;30.20;;;5.00;99.90;;;;;;5095155;28;20494;-65
2023/10/17 04:56:11;;;;;;;48.25;28.95;;;5.00;99.90;;;;;;5095789;28;20047;-65
2023/10/17 04:59:09;;;;;;;54.45;29.98;;;5.00;99.90;;;;;;5096051;28;20016;-65
2023/10/17 05:01:46;;;;;;;56.72;32.45;;;4.90;99.90;;;;;;5095023;28;20028;-65
2023/10/17 05:04:18;;;;;;;47.80;28.95;;;4.90;99.90;;;;;;5094691;28;20016;-65
2023/10/17 06:18:18;;;;;;;61.95;33.53;;;4.70;99.90;;;;;;5073726;28;20368;-64
2023/10/17 06:26:46;;;;;;;86.85;42.90;;;5.00;99.90;;;;;;5049749;28;20025;-64
2023/10/17 06:32:48;;;;;;;80.00;39.10;;;5.30;99.90;;;;;;5041642;28;20036;-64
2023/10/17 06:34:37;;;;;;;76.00;38.90;;;5.40;99.90;;;;;;5056037;28;20439;-65
2023/10/17 06:37:07;;;;;;;78.97;40.47;;;5.50;99.90;;;;;;5066587;28;20033;-63
2023/10/17 06:39:36;;;;;;;74.40;38.47;;;5.60;99.90;;;;;;5042847;28;20474;-64
2023/10/17 06:42:14;;;;;;;79.32;40.17;;;5.70;99.90;;;;;;5045242;28;20527;-64
2023/10/17 06:44:52;;;;;;;74.88;39.83;;;5.80;99.90;;;;;;5042270;28;20093;-64
2023/10/17 06:47:21;;;;;;;77.07;37.85;;;5.90;99.90;;;;;;5044491;28;20146;-65
2023/10/17 06:50:16;;;;;;;68.88;36.90;;;6.00;99.90;;;;;;5041170;28;20040;-65
2023/10/17 06:53:04;;;;;;;70.38;38.65;;;6.20;99.90;;;;;;5052695;28;20032;-65
2023/10/17 06:55:21;;;;;;;68.07;37.38;;;6.20;99.90;;;;;;5065530;28;20024;-64
2023/10/17 06:57:51;;;;;;;68.28;37.15;;;6.80;99.90;;;;;;5060539;28;20033;-67
2023/10/17 07:00:24;;;;;;;70.30;38.78;;;7.30;99.90;;;;;;5045748;28;20479;-67
2023/10/17 07:02:50;;;;;;;65.75;35.08;;;7.70;99.90;;;;;;5057858;28;20035;-66
2023/10/17 07:05:24;;;;;;;53.08;32.05;;;7.90;99.90;;;;;;5040222;28;20472;-67
2023/10/17 07:07:53;;;;;;;53.60;33.58;;;7.90;99.90;;;;;;5035773;28;20045;-67
2023/10/17 07:13:49;;;;;;;55.85;30.23;;;7.60;99.90;;;;;;5055378;28;20017;-66
2023/10/17 07:16:16;;;;;;;50.05;28.17;;;7.40;99.90;;;;;;5051561;28;20021;-66
2023/10/17 07:18:44;;;;;;;47.60;28.83;;;7.20;99.90;;;;;;5050044;28;20067;-67
2023/10/17 07:23:48;;;;;;;52.30;31.20;;;7.20;99.90;;;;;;5047265;28;20035;-65
2023/10/17 07:26:17;;;;;;;53.70;32.10;;;7.70;99.90;;;;;;5049559;28;20288;-66
2023/10/17 07:28:44;;;;;;;45.08;28.40;;;9.10;99.90;;;;;;5052202;28;20025;-67
2023/10/17 07:31:11;;;;;;;38.47;24.50;;;10.10;99.90;;;;;;5058335;28;20029;-68
2023/10/17 07:33:38;;;;;;;31.55;20.73;;;11.00;99.90;;;;;;5048689;28;20521;-67
2023/10/17 07:36:06;;;;;;;26.40;18.05;;;11.60;99.90;;;;;;5051716;28;20025;-67
2023/10/17 07:38:31;;;;;;;22.45;17.67;;;11.70;99.90;;;;;;5047637;28;20033;-67
2023/10/17 07:40:58;;;;;;;23.88;18.00;;;12.10;99.90;;;;;;5050705;28;20433;-66
2023/10/17 07:43:24;;;;;;;23.13;15.98;;;12.30;99.90;;;;;;5046246;28;20025;-66
2023/10/17 07:45:55;;;;;;;23.40;16.38;;;12.30;99.90;;;;;;5053249;28;20040;-67
2023/10/17 07:48:24;;;;;;;24.75;16.75;;;12.80;99.90;;;;;;5050797;28;20040;-67
2023/10/17 07:50:51;;;;;;;20.70;15.32;;;13.20;17.90;;;;;;5050197;28;20021;-69
2023/10/17 07:53:21;;;;;;;23.40;16.02;;;13.10;1.00;;;;;;5053175;28;20031;-67
2023/10/17 07:55:52;;;;;;;22.55;15.82;;;12.60;1.00;;;;;;5054533;28;20033;-68
2023/10/17 07:58:35;;;;;;;19.92;15.52;;;12.30;1.00;;;;;;5050271;28;20029;-68
2023/10/17 08:01:03;;;;;;;;;;;13.30;1.00;;;;;;5048416;28;20082;-69
2023/10/17 08:03:29;;;;;;;20.10;15.77;;;13.20;1.00;;;;;;5050416;28;19909;-68
2023/10/17 08:06:12;;;;;;;22.67;16.08;;;12.60;1.00;;;;;;5052282;28;20052;-69
2023/10/17 08:08:42;;;;;;;22.02;15.13;;;13.10;1.00;;;;;;5049728;28;20456;-67
2023/10/17 08:11:20;;;;;;;21.85;14.65;;;13.60;1.00;;;;;;5049881;28;20029;-67
2023/10/17 08:13:45;;;;;;;20.33;15.23;;;13.80;99.90;;;;;;5055947;28;20025;-68
2023/10/17 08:16:24;;;;;;;19.52;14.90;;;14.90;99.90;;;;;;5049597;28;20028;-69
2023/10/17 08:18:55;;;;;;;17.98;13.57;;;14.80;99.90;;;;;;5045416;28;20047;-68
2023/10/17 08:24:00;;;;;;;17.55;12.55;;;16.00;1.00;;;;;;5068940;28;20452;-68
2023/10/17 08:26:29;;;;;;;16.05;12.52;;;16.00;94.30;;;;;;5063630;28;20113;-74
2023/10/17 08:28:56;;;;;;;19.05;13.63;;;16.60;95.70;;;;;;5064231;28;20457;-68
2023/10/17 08:31:23;;;;;;;18.30;13.38;;;16.60;1.00;;;;;;5067018;28;20352;-68
2023/10/17 08:34:24;;;;;;;16.42;13.30;;;16.50;1.00;;;;;;5066349;28;20059;-68
2023/10/17 08:36:42;;;;;;;15.27;12.00;;;15.20;1.00;;;;;;5061734;28;20037;-67
2023/10/17 08:42:05;;;;;;;19.15;12.95;;;15.40;1.00;;;;;;5064994;28;20108;-68
2023/10/17 08:44:34;;;;;;;16.23;12.27;;;16.40;1.00;;;;;;5064699;28;20494;-69
2023/10/17 08:47:01;;;;;;;15.82;12.18;;;15.60;1.00;;;;;;5066504;28;20064;-67
2023/10/17 08:49:27;;;;;;;14.40;11.55;;;16.00;1.00;;;;;;5062584;28;20479;-65
2023/10/17 08:51:56;;;;;;;16.77;11.30;;;16.50;99.90;;;;;;5064685;28;20486;-66
2023/10/17 08:54:22;;;;;;;14.27;11.95;;;16.80;99.90;;;;;;5066308;28;20067;-69
2023/10/17 08:56:48;;;;;;;14.20;11.50;;;16.10;99.90;;;;;;5065290;28;20035;-68
2023/10/17 08:59:15;;;;;;;20.50;12.50;;;15.30;1.00;;;;;;5062235;28;20479;-69
2023/10/17 09:02:03;;;;;;;21.08;13.52;;;14.60;99.90;;;;;;5062980;28;20024;-69
2023/10/17 09:04:33;;;;;;;16.98;12.82;;;12.70;99.90;;;;;;5063373;28;20023;-66
2023/10/17 09:07:00;;;;;;;21.73;13.88;;;12.30;1.00;;;;;;5063385;28;20024;-66
2023/10/17 09:09:33;;;;;;;20.50;13.20;;;11.90;1.00;;;;;;5056688;28;20561;-70
2023/10/17 09:12:02;;;;;;;19.70;13.60;;;11.80;1.00;;;;;;5070134;28;20524;-67
2023/10/17 09:14:35;;;;;;;19.98;14.00;;;11.60;1.00;;;;;;5065579;28;20123;-67
2023/10/17 09:17:39;;;;;;;21.27;14.38;;;11.20;1.00;;;;;;5062494;28;20040;-68
2023/10/17 09:19:51;;;;;;;19.02;13.88;;;11.40;1.00;;;;;;5061554;28;20025;-68
2023/10/17 09:25:19;;;;;;;22.08;14.20;;;11.50;1.00;;;;;;5107978;27;20465;-66
2023/10/17 09:27:49;;;;;;;22.98;14.95;;;11.40;1.00;;;;;;5109588;28;20016;-67
2023/10/17 09:30:17;;;;;;;21.05;12.95;;;11.40;1.00;;;;;;5107993;28;20038;-67
2023/10/17 09:32:42;;;;;;;18.55;12.80;;;11.90;1.00;;;;;;5097115;28;20036;-67
2023/10/17 09:35:11;;;;;;;19.60;13.27;;;12.50;1.00;;;;;;5091011;28;20028;-67
2023/10/17 09:37:41;;;;;;;18.50;12.07;;;13.60;1.00;;;;;;5092172;28;20075;-69
2023/10/17 09:40:39;;;;;;;15.55;10.90;;;14.90;99.90;;;;;;5090514;28;20412;-69
2023/10/17 09:42:53;;;;;;;13.32;10.35;;;15.30;1.00;;;;;;5103649;28;20114;-68
2023/10/17 09:45:20;;;;;;;15.82;11.02;;;15.40;99.90;;;;;;5104355;28;20588;-69
2023/10/17 09:47:52;;;;;;;14.38;10.20;;;15.50;99.90;;;;;;5108562;28;20385;-70
2023/10/17 09:50:18;;;;;;;14.27;9.88;;;16.30;1.00;;;;;;5104535;28;20027;-67
2023/10/17 09:52:45;;;;;;;15.48;11.07;;;16.60;95.10;;;;;;5110849;28;20058;-68
2023/10/17 09:55:15;;;;;;;16.80;11.18;;;15.30;1.00;;;;;;5113407;28;20101;-68
2023/10/17 09:57:50;;;;;;;16.55;11.57;;;14.00;99.90;;;;;;5108059;27;20030;-68
2023/10/17 10:00:39;;;;;;;15.25;10.60;;;14.70;1.00;;;;;;5108146;28;20578;-68
2023/10/17 10:03:06;;;;;;;15.80;11.10;;;15.30;99.90;;;;;;5108843;28;20028;-67
2023/10/17 10:05:32;;;;;;;13.40;10.07;;;15.70;1.00;;;;;;5108782;28;20111;-68
2023/10/17 10:08:05;;;;;;;14.18;10.00;;;15.40;99.90;;;;;;5108746;28;20024;-68
2023/10/17 10:10:51;;;;;;;14.77;10.15;;;14.70;1.00;;;;;;5106478;28;20027;-66
2023/10/17 10:13:17;;;;;;;15.57;9.48;;;15.30;99.90;;;;;;5105439;28;20073;-65
2023/10/17 10:15:58;;;;;;;13.02;9.43;;;15.90;99.90;;;;;;5109720;28;20024;-66
2023/10/17 10:18:40;;;;;;;13.23;8.82;;;16.00;99.90;;;;;;5111929;28;20115;-67
2023/10/17 10:21:07;;;;;;;14.95;9.23;;;16.60;64.90;;;;;;5107966;28;20036;-67
2023/10/17 10:23:35;;;;;;;14.23;9.45;;;16.30;99.90;;;;;;5107818;28;20052;-67
2023/10/17 10:26:19;;;;;;;13.82;8.88;;;15.90;1.00;;;;;;5103933;28;20041;-67
2023/10/17 10:28:47;;;;;;;11.95;8.68;;;16.00;1.00;;;;;;5107274;28;20039;-70
2023/10/17 10:31:33;;;;;;;14.75;8.82;;;16.80;99.90;;;;;;5107270;28;20030;-68
2023/10/17 10:33:58;;;;;;;10.15;8.30;;;16.60;1.00;;;;;;5112644;28;20027;-67
2023/10/17 10:36:24;;;;;;;9.38;7.50;;;15.70;99.90;;;;;;5093941;28;20477;-68
2023/10/17 10:38:51;;;;;;;11.95;8.73;;;15.90;99.90;;;;;;5085648;28;20610;-68
2023/10/17 10:41:19;;;;;;;11.50;8.50;;;15.60;99.90;;;;;;5099998;28;20032;-67
2023/10/17 10:43:46;;;;;;;9.82;8.60;;;15.90;1.00;;;;;;5094530;28;20043;-67
2023/10/17 10:46:14;;;;;;;11.98;7.88;;;16.60;29.30;;;;;;5089421;28;20119;-67
2023/10/17 10:48:48;;;;;;;8.70;7.80;;;17.10;99.90;;;;;;5097529;28;20016;-68
2023/10/17 10:51:15;;;;;;;9.38;7.40;;;16.60;99.90;;;;;;5088674;28;20119;-68
2023/10/17 10:53:44;;;;;;;13.13;6.90;;;16.70;95.40;;;;;;5095630;28;20039;-67
2023/10/17 10:56:11;;;;;;;9.10;7.30;;;16.70;1.00;;;;;;5087156;28;20039;-67
2023/10/17 10:58:44;;;;;;;9.88;7.05;;;17.00;27.80;;;;;;5082666;28;20158;-67
2023/10/17 11:01:10;;;;;;;12.20;7.38;;;17.10;99.90;;;;;;5098202;28;20035;-67
2023/10/17 11:03:46;;;;;;;11.90;7.20;;;17.50;99.90;;;;;;5090198;28;20032;-67
2023/10/17 11:06:13;;;;;;;8.85;6.00;;;17.10;1.00;;;;;;5103818;28;20028;-67
2023/10/17 11:08:43;;;;;;;9.82;5.65;;;15.80;99.90;;;;;;5097912;28;20052;-67
2023/10/17 11:11:10;;;;;;;7.90;5.97;;;15.70;99.90;;;;;;5094955;28;20024;-67
2023/10/17 11:13:39;;;;;;;7.55;6.38;;;15.80;99.90;;;;;;5096205;28;20035;-66
2023/10/17 11:16:06;;;;;;;11.18;7.22;;;16.00;1.00;;;;;;5094666;28;20389;-66
2023/10/17 11:18:34;;;;;;;10.85;6.47;;;15.80;99.90;;;;;;5095779;28;20114;-66
2023/10/17 11:21:02;;;;;;;7.53;5.80;;;15.60;1.00;;;;;;5107225;28;20036;-67
2023/10/17 11:23:29;;;;;;;9.43;6.28;;;15.10;99.90;;;;;;5097703;28;20411;-68
2023/10/17 11:25:57;;;;;;;13.80;7.55;;;15.20;99.90;;;;;;5082582;28;20024;-66
2023/10/17 11:28:22;;;;;;;12.07;7.63;;;14.80;99.90;;;;;;5089093;28;20028;-67
2023/10/17 11:30:50;;;;;;;12.40;7.22;;;14.50;99.90;;;;;;5080522;28;20028;-67
2023/10/17 11:33:17;;;;;;;9.75;7.25;;;14.60;99.90;;;;;;5093337;28;20024;-67
2023/10/17 11:35:48;;;;;;;9.98;7.18;;;14.60;1.00;;;;;;5097815;28;20386;-67
2023/10/17 11:38:46;;;;;;;8.77;6.32;;;14.40;58.10;;;;;;5092057;28;20073;-66
2023/10/17 11:41:17;;;;;;;7.72;5.97;;;14.40;1.00;;;;;;5082204;28;20056;-67
2023/10/17 11:43:58;;;;;;;9.95;6.30;;;14.20;99.90;;;;;;5083986;28;20028;-67
2023/10/17 11:46:29;;;;;;;6.75;5.40;;;14.60;99.90;;;;;;5073947;28;20111;-68
2023/10/17 11:49:13;;;;;;;8.82;6.68;;;14.40;99.90;;;;;;5079665;28;20210;-67
2023/10/17 11:51:39;;;;;;;8.52;5.85;;;13.90;99.90;;;;;;5079115;28;20055;-68
2023/10/17 11:54:07;;;;;;;8.40;6.28;;;14.10;99.90;;;;;;5073839;28;20040;-68
2023/10/17 11:56:37;;;;;;;7.38;5.47;;;14.10;99.90;;;;;;5077793;28;20033;-67
2023/10/17 11:59:06;;;;;;;8.73;5.03;;;13.60;99.90;;;;;;5086122;28;20111;-66
2023/10/17 12:01:32;;;;;;;8.35;4.90;;;13.70;1.00;;;;;;5078458;28;20031;-68
2023/10/17 12:04:00;;;;;;;7.45;4.85;;;13.60;4.10;;;;;;5094013;28;20039;-69
2023/10/17 12:06:26;;;;;;;8.02;4.88;;;13.40;1.00;;;;;;5088863;28;20020;-68
2023/10/17 12:08:53;;;;;;;6.65;4.05;;;13.50;99.90;;;;;;5089367;28;20032;-68
2023/10/17 12:11:19;;;;;;;7.80;4.90;;;13.50;1.00;;;;;;5091863;28;20137;-67
2023/10/17 12:13:46;;;;;;;6.65;4.88;;;13.70;99.90;;;;;;5095927;28;20032;-68
2023/10/17 12:16:11;;;;;;;10.65;5.38;;;13.80;99.90;;;;;;5089933;28;20084;-68
2023/10/17 12:18:38;;;;;;;9.02;4.80;;;13.70;99.90;;;;;;5088132;28;20036;-67
2023/10/17 12:21:04;;;;;;;6.18;4.15;;;13.70;1.00;;;;;;5092367;28;20034;-68
2023/10/17 12:23:30;;;;;;;5.07;4.03;;;13.70;99.90;;;;;;5081786;28;20040;-68
2023/10/17 12:25:58;;;;;;;6.00;4.55;;;13.70;99.90;;;;;;5087294;28;20030;-68
2023/10/17 12:28:26;;;;;;;6.15;4.00;;;13.60;1.00;;;;;;5111898;28;20058;-67
2023/10/17 12:30:53;;;;;;;6.22;4.07;;;13.50;99.90;;;;;;5100678;28;20111;-67
2023/10/17 12:33:22;;;;;;;6.30;4.10;;;13.70;99.90;;;;;;5104322;28;20413;-68
2023/10/17 12:35:48;;;;;;;6.95;4.38;;;13.60;99.90;;;;;;5095243;28;20029;-68
2023/10/17 12:38:18;;;;;;;6.93;5.00;;;13.50;99.90;;;;;;5099139;28;20027;-67
2023/10/17 12:40:43;;;;;;;5.78;3.67;;;13.50;1.00;;;;;;5094011;28;20076;-67
2023/10/17 12:43:11;;;;;;;4.90;3.60;;;13.40;99.90;;;;;;5093613;28;20028;-68
2023/10/17 12:45:38;;;;;;;5.32;3.60;;;13.30;97.90;;;;;;5089179;28;20378;-67
2023/10/17 12:48:05;;;;;;;7.57;3.90;;;13.30;7.30;;;;;;5105708;28;20032;-66
2023/10/17 12:50:33;;;;;;;4.43;3.65;;;13.20;99.90;;;;;;5102688;28;20023;-66
2023/10/17 12:52:59;;;;;;;5.03;3.70;;;13.30;99.90;;;;;;5107893;28;20028;-66
2023/10/17 12:55:24;;;;;;;7.18;4.28;;;13.30;99.90;;;;;;5090406;28;20500;-66
2023/10/17 12:57:51;;;;;;;5.38;4.32;;;13.10;1.00;;;;;;5090903;28;20024;-68
2023/10/17 13:00:17;;;;;;;5.55;4.05;;;13.10;99.90;;;;;;5090798;28;20024;-67
2023/10/17 13:02:43;;;;;;;6.55;3.65;;;13.30;1.00;;;;;;5093875;28;20023;-67
2023/10/17 13:05:10;;;;;;;3.95;3.20;;;13.30;99.90;;;;;;5089086;28;20378;-68
2023/10/17 13:07:37;;;;;;;3.47;3.15;;;13.30;92.50;;;;;;5092488;28;20032;-67
2023/10/17 13:10:03;;;;;;;5.75;3.85;;;13.30;1.00;;;;;;5093202;28;20032;-68
2023/10/17 13:12:29;;;;;;;5.55;3.75;;;13.30;99.90;;;;;;5079527;28;20035;-67
2023/10/17 13:14:54;;;;;;;6.95;4.10;;;13.00;99.90;;;;;;5091927;28;20040;-67
2023/10/17 13:17:21;;;;;;;7.07;4.10;;;13.20;99.90;;;;;;5093492;28;20024;-67
2023/10/17 13:19:49;;;;;;;7.63;3.50;;;13.20;99.90;;;;;;5093898;28;20374;-67
2023/10/17 13:22:17;;;;;;;5.75;4.00;;;13.10;1.00;;;;;;5107544;28;20028;-67
2023/10/17 13:24:45;;;;;;;5.68;3.50;;;13.20;1.00;;;;;;5094136;28;20047;-67
2023/10/17 13:27:11;;;;;;;6.97;3.42;;;13.30;99.90;;;;;;5099868;28;20054;-68
2023/10/17 13:29:36;;;;;;;5.75;3.72;;;13.10;1.00;;;;;;5096600;28;20070;-68
2023/10/17 13:32:07;;;;;;;6.35;3.67;;;13.10;99.90;;;;;;5113390;28;20028;-66
2023/10/17 13:34:35;;;;;;;5.22;3.95;;;12.90;56.60;;;;;;5098157;28;20031;-68
2023/10/17 13:37:04;;;;;;;5.32;3.97;;;12.70;99.90;;;;;;5105781;28;20382;-67
2023/10/17 13:39:31;;;;;;;4.78;3.83;;;12.70;30.80;;;;;;5088617;28;20393;-66
2023/10/17 13:41:57;;;;;;;4.53;3.45;;;12.60;1.00;;;;;;5092725;28;20032;-66
2023/10/17 13:44:23;;;;;;;5.40;3.70;;;12.70;99.90;;;;;;5090941;28;20071;-67
2023/10/17 13:46:51;;;;;;;5.57;4.20;;;12.70;99.90;;;;;;5097793;28;20039;-68
2023/10/17 13:49:17;;;;;;;6.95;4.75;;;12.80;99.90;;;;;;5098030;28;20027;-68
2023/10/17 13:51:46;;;;;;;5.80;4.63;;;12.50;99.90;;;;;;5093350;28;20024;-67
2023/10/17 13:54:13;;;;;;;7.18;4.45;;;12.60;50.50;;;;;;5087309;28;20036;-68
2023/10/17 13:56:40;;;;;;;7.07;4.43;;;12.50;6.40;;;;;;5085482;28;20033;-68
2023/10/17 13:59:09;;;;;;;6.70;4.80;;;12.50;99.90;;;;;;5092367;28;20077;-68
2023/10/17 14:01:46;;;;;;;5.45;4.50;;;12.40;1.00;;;;;;5095898;28;20046;-67
2023/10/17 14:04:12;;;;;;;6.35;4.75;;;12.30;1.60;;;;;;5090274;28;20024;-68
2023/10/17 14:06:40;;;;;;;5.95;4.88;;;12.40;99.90;;;;;;5093446;28;20024;-67
2023/10/17 14:09:14;;;;;;;8.85;5.15;;;12.30;99.90;;;;;;5093278;28;20064;-67
2023/10/17 14:11:43;;;;;;;10.68;4.78;;;12.30;99.90;;;;;;5092898;28;20408;-67
2023/10/17 14:14:10;;;;;;;8.85;5.45;;;12.40;1.00;;;;;;5094752;28;20072;-68
2023/10/17 14:16:40;;;;;;;8.10;5.63;;;12.40;99.90;;;;;;5099752;28;20028;-69
2023/10/17 14:19:15;;;;;;;7.85;5.00;;;12.30;1.00;;;;;;5098424;28;20035;-70
2023/10/17 14:22:28;;;;;;;7.20;5.35;;;12.30;1.00;;;;;;5092453;28;20036;-67
2023/10/17 14:24:38;;;;;;;6.68;5.53;;;12.30;99.90;;;;;;5096905;28;20032;-67
2023/10/17 14:27:11;;;;;;;9.60;5.32;;;12.20;1.00;;;;;;5098073;28;20028;-67
2023/10/17 14:29:40;;;;;;;8.98;5.70;;;12.20;1.00;;;;;;5095651;28;20473;-67
2023/10/17 14:32:06;;;;;;;7.43;4.97;;;12.10;1.00;;;;;;5094465;28;20028;-67
2023/10/17 14:34:32;;;;;;;6.80;4.82;;;12.20;99.90;;;;;;5097048;28;20363;-68